Darya Jyoti — VRGM9 — position and weather

sailwx.info

Track history (hours):
 
Tides and Currents Weather Stations Pressure Air Temp Water Temp Dewpoint Dewpoint Depression Visibility Wind Speed Wind Dir Waves Ship Positions

Darya Jyoti

Last reported at 2015-Apr-15 20:33 UTC. Time now 2015-Apr-19 14:07 UTC.
Position N 01°16' E 104°09'.

Length 229 m; draft 13 m.

Type: Cargo ship. MMSI: 477742700.

Date/timePositionNaut miles runAvg speedWind from/ knotsBaromVisibWave heightAir tempDewpointWater temp
2015-Apr-15 20:33N 01°16' E 104°09'7 7.1
2015-Apr-15 19:33N 01°17' E 104°02'2 1.5
2015-Apr-15 18:26N 01°18' E 104°01'0 0.0
2015-Apr-15 17:26N 01°18' E 104°01'0 0.0
2015-Apr-15 16:14N 01°17' E 104°01'0 0.0
2015-Apr-15 15:32N 01°17' E 104°01'0 0.0
2015-Apr-15 14:32N 01°18' E 104°01'0 0.0
2015-Apr-15 13:32N 01°18' E 104°01'0 0.0
2015-Apr-15 12:08N 01°18' E 104°01'0 0.0
2015-Apr-15 11:32N 01°18' E 104°01'0 0.0
2015-Apr-15 10:14N 01°18' E 104°01'0 0.0
2015-Apr-15 09:29N 01°18' E 104°01'0 0.0
2015-Apr-15 08:32N 01°18' E 104°01'0 0.1
2015-Apr-15 07:32N 01°18' E 104°01'1 0.7
2015-Apr-15 06:33N 01°17' E 104°00'4 3.7
2015-Apr-15 05:33N 01°15' E 103°57'6 5.7
2015-Apr-15 04:32N 01°12' E 103°52'8 7.6
2015-Apr-15 03:33N 01°08' E 103°46'71 8.8
2015-Apr-14 19:30N 01°40' E 102°43'1111.4
2015-Apr-14 18:33N 01°45' E 102°33'1211.1
2015-Apr-14 17:28N 01°50' E 102°22'  
Track history (hours):
 
Tides and Currents Weather Stations Pressure Air Temp Water Temp Dewpoint Dewpoint Depression Visibility Wind Speed Wind Dir Waves Ship Positions

Darya Jyoti

Last reported at 2015-Apr-15 20:33 UTC. Time now 2015-Apr-19 14:07 UTC.
Position N 01°16' E 104°09'.

Length 229 m; draft 13 m.

Type: Cargo ship. MMSI: 477742700.

Date/timePositionNaut miles runAvg speedWind from/ knotsBaromVisibWave heightAir tempDewpointWater temp
2015-Apr-15 20:33N 01°16' E 104°09'7 7.1
2015-Apr-15 19:33N 01°17' E 104°02'2 1.5
2015-Apr-15 18:26N 01°18' E 104°01'0 0.0
2015-Apr-15 17:26N 01°18' E 104°01'0 0.0
2015-Apr-15 16:14N 01°17' E 104°01'0 0.0
2015-Apr-15 15:32N 01°17' E 104°01'0 0.0
2015-Apr-15 14:32N 01°18' E 104°01'0 0.0
2015-Apr-15 13:32N 01°18' E 104°01'0 0.0
2015-Apr-15 12:08N 01°18' E 104°01'0 0.0
2015-Apr-15 11:32N 01°18' E 104°01'0 0.0
2015-Apr-15 10:14N 01°18' E 104°01'0 0.0
2015-Apr-15 09:29N 01°18' E 104°01'0 0.0
2015-Apr-15 08:32N 01°18' E 104°01'0 0.1
2015-Apr-15 07:32N 01°18' E 104°01'1 0.7
2015-Apr-15 06:33N 01°17' E 104°00'4 3.7
2015-Apr-15 05:33N 01°15' E 103°57'6 5.7
2015-Apr-15 04:32N 01°12' E 103°52'8 7.6
2015-Apr-15 03:33N 01°08' E 103°46'71 8.8
2015-Apr-14 19:30N 01°40' E 102°43'1111.4
2015-Apr-14 18:33N 01°45' E 102°33'1211.1
2015-Apr-14 17:28N 01°50' E 102°22'  

Dump ship's entire track history